sensor_id;sensor_type;location;lat;lon;timestamp;temperature;humidity
13409;DHT22;6775;49.574;11.170;2023-02-11T00:01:21;-2.10;99.90
13409;DHT22;6775;49.574;11.170;2023-02-11T00:03:50;-2.20;99.90
13409;DHT22;6775;49.574;11.170;2023-02-11T00:06:18;-2.10;99.90
13409;DHT22;6775;49.574;11.170;2023-02-11T00:08:46;-2.30;99.90
13409;DHT22;6775;49.574;11.170;2023-02-11T00:11:15;-2.40;99.90
13409;DHT22;6775;49.574;11.170;2023-02-11T00:13:44;-2.40;99.90
13409;DHT22;6775;49.574;11.170;2023-02-11T00:16:13;-2.40;99.90
13409;DHT22;6775;49.574;11.170;2023-02-11T00:18:43;-2.40;99.90
13409;DHT22;6775;49.574;11.170;2023-02-11T00:21:13;-2.30;99.90
13409;DHT22;6775;49.574;11.170;2023-02-11T00:23:42;-2.20;99.90
13409;DHT22;6775;49.574;11.170;2023-02-11T00:26:13;-2.20;99.90
13409;DHT22;6775;49.574;11.170;2023-02-11T00:28:42;-2.10;99.90
13409;DHT22;6775;49.574;11.170;2023-02-11T00:31:10;-2.10;99.90
13409;DHT22;6775;49.574;11.170;2023-02-11T00:33:38;-2.00;99.90
13409;DHT22;6775;49.574;11.170;2023-02-11T00:36:11;-2.00;99.90
13409;DHT22;6775;49.574;11.170;2023-02-11T00:38:41;-1.90;99.90
13409;DHT22;6775;49.574;11.170;2023-02-11T00:41:09;-1.90;99.90
13409;DHT22;6775;49.574;11.170;2023-02-11T00:43:36;-1.90;99.90
13409;DHT22;6775;49.574;11.170;2023-02-11T00:46:05;-1.80;99.90
13409;DHT22;6775;49.574;11.170;2023-02-11T00:48:32;-1.80;99.90
13409;DHT22;6775;49.574;11.170;2023-02-11T00:51:01;-1.70;99.90
13409;DHT22;6775;49.574;11.170;2023-02-11T00:53:31;-1.70;99.90
13409;DHT22;6775;49.574;11.170;2023-02-11T00:55:59;-1.80;99.90
13409;DHT22;6775;49.574;11.170;2023-02-11T00:58:27;-1.90;99.90
13409;DHT22;6775;49.574;11.170;2023-02-11T01:00:55;-2.00;99.90
13409;DHT22;6775;49.574;11.170;2023-02-11T01:03:23;-2.00;99.90
13409;DHT22;6775;49.574;11.170;2023-02-11T01:05:51;-2.10;99.90
13409;DHT22;6775;49.574;11.170;2023-02-11T01:08:20;-2.10;99.90
13409;DHT22;6775;49.574;11.170;2023-02-11T01:10:54;-2.10;99.90
13409;DHT22;6775;49.574;11.170;2023-02-11T01:13:23;-2.10;99.90
13409;DHT22;6775;49.574;11.170;2023-02-11T01:15:51;-2.10;99.90
13409;DHT22;6775;49.574;11.170;2023-02-11T01:18:20;-2.20;99.90
13409;DHT22;6775;49.574;11.170;2023-02-11T01:20:47;-2.10;99.90
13409;DHT22;6775;49.574;11.170;2023-02-11T01:23:15;-2.10;99.90
13409;DHT22;6775;49.574;11.170;2023-02-11T01:25:43;-2.10;99.90
13409;DHT22;6775;49.574;11.170;2023-02-11T01:28:16;-2.20;99.90
13409;DHT22;6775;49.574;11.170;2023-02-11T01:30:44;-2.20;99.90
13409;DHT22;6775;49.574;11.170;2023-02-11T01:33:12;-2.20;99.90
13409;DHT22;6775;49.574;11.170;2023-02-11T01:35:42;-2.20;99.90
13409;DHT22;6775;49.574;11.170;2023-02-11T01:38:15;-2.20;99.90
13409;DHT22;6775;49.574;11.170;2023-02-11T01:40:46;-2.20;99.90
13409;DHT22;6775;49.574;11.170;2023-02-11T01:43:18;-2.20;99.90
13409;DHT22;6775;49.574;11.170;2023-02-11T01:45:56;-2.30;99.90
13409;DHT22;6775;49.574;11.170;2023-02-11T01:48:28;-2.30;99.90
13409;DHT22;6775;49.574;11.170;2023-02-11T01:51:00;-2.40;99.90
13409;DHT22;6775;49.574;11.170;2023-02-11T01:53:29;-2.40;99.90
13409;DHT22;6775;49.574;11.170;2023-02-11T01:56:17;-2.40;99.90
13409;DHT22;6775;49.574;11.170;2023-02-11T01:59:10;-2.30;99.90
13409;DHT22;6775;49.574;11.170;2023-02-11T02:01:40;-2.30;99.90
13409;DHT22;6775;49.574;11.170;2023-02-11T02:04:10;-2.30;99.90
13409;DHT22;6775;49.574;11.170;2023-02-11T02:06:43;-2.20;99.90
13409;DHT22;6775;49.574;11.170;2023-02-11T02:09:18;-2.10;99.90
13409;DHT22;6775;49.574;11.170;2023-02-11T02:11:47;-2.10;99.90
13409;DHT22;6775;49.574;11.170;2023-02-11T02:14:16;-2.00;99.90
13409;DHT22;6775;49.574;11.170;2023-02-11T02:16:44;-1.90;99.90
13409;DHT22;6775;49.574;11.170;2023-02-11T02:25:58;-2.10;99.90
13409;DHT22;6775;49.574;11.170;2023-02-11T02:28:41;-2.10;99.90
13409;DHT22;6775;49.574;11.170;2023-02-11T02:31:30;-2.10;99.90
13409;DHT22;6775;49.574;11.170;2023-02-11T02:34:08;-2.10;99.90
13409;DHT22;6775;49.574;11.170;2023-02-11T02:36:43;-2.00;99.90
13409;DHT22;6775;49.574;11.170;2023-02-11T02:39:17;-1.90;99.90
13409;DHT22;6775;49.574;11.170;2023-02-11T02:41:47;-1.90;99.90
13409;DHT22;6775;49.574;11.170;2023-02-11T02:44:17;-1.90;99.90
13409;DHT22;6775;49.574;11.170;2023-02-11T02:46:45;-2.00;99.90
13409;DHT22;6775;49.574;11.170;2023-02-11T02:49:15;-2.00;99.90
13409;DHT22;6775;49.574;11.170;2023-02-11T02:55:04;-2.00;99.90
13409;DHT22;6775;49.574;11.170;2023-02-11T02:57:42;-1.90;99.90
13409;DHT22;6775;49.574;11.170;2023-02-11T03:00:18;-1.80;99.90
13409;DHT22;6775;49.574;11.170;2023-02-11T03:03:03;-1.80;99.90
13409;DHT22;6775;49.574;11.170;2023-02-11T03:05:39;-1.80;99.90
13409;DHT22;6775;49.574;11.170;2023-02-11T03:08:12;-1.80;99.90
13409;DHT22;6775;49.574;11.170;2023-02-11T03:10:45;-1.90;99.90
13409;DHT22;6775;49.574;11.170;2023-02-11T03:13:13;-1.90;99.90
13409;DHT22;6775;49.574;11.170;2023-02-11T03:15:45;-2.00;99.90
13409;DHT22;6775;49.574;11.170;2023-02-11T03:18:16;-1.90;99.90
13409;DHT22;6775;49.574;11.170;2023-02-11T03:20:49;-1.80;99.90
13409;DHT22;6775;49.574;11.170;2023-02-11T03:23:24;-1.80;99.90
13409;DHT22;6775;49.574;11.170;2023-02-11T03:25:56;-1.80;99.90
13409;DHT22;6775;49.574;11.170;2023-02-11T03:28:28;-1.80;99.90
13409;DHT22;6775;49.574;11.170;2023-02-11T03:31:08;-1.70;99.90
13409;DHT22;6775;49.574;11.170;2023-02-11T03:33:43;-1.70;99.90
13409;DHT22;6775;49.574;11.170;2023-02-11T03:36:19;-1.60;99.90
13409;DHT22;6775;49.574;11.170;2023-02-11T03:38:51;-1.50;99.90
13409;DHT22;6775;49.574;11.170;2023-02-11T03:41:22;-1.30;99.90
13409;DHT22;6775;49.574;11.170;2023-02-11T03:43:53;-1.20;99.90
13409;DHT22;6775;49.574;11.170;2023-02-11T03:46:24;-1.00;99.90
13409;DHT22;6775;49.574;11.170;2023-02-11T03:48:55;-0.90;99.90
13409;DHT22;6775;49.574;11.170;2023-02-11T03:51:28;-0.30;99.90
13409;DHT22;6775;49.574;11.170;2023-02-11T03:53:59;-0.80;99.90
13409;DHT22;6775;49.574;11.170;2023-02-11T03:56:32;-0.70;99.90
13409;DHT22;6775;49.574;11.170;2023-02-11T03:59:00;-0.70;99.90
13409;DHT22;6775;49.574;11.170;2023-02-11T04:01:28;-0.60;99.90
13409;DHT22;6775;49.574;11.170;2023-02-11T04:03:56;-0.60;99.90
13409;DHT22;6775;49.574;11.170;2023-02-11T04:06:24;-0.60;99.90
13409;DHT22;6775;49.574;11.170;2023-02-11T04:08:53;-0.60;99.90
13409;DHT22;6775;49.574;11.170;2023-02-11T04:11:21;-0.60;99.90
13409;DHT22;6775;49.574;11.170;2023-02-11T04:13:49;-0.70;99.90
13409;DHT22;6775;49.574;11.170;2023-02-11T04:16:17;-0.70;99.90
13409;DHT22;6775;49.574;11.170;2023-02-11T04:18:45;-0.80;99.90
13409;DHT22;6775;49.574;11.170;2023-02-11T04:21:13;-0.90;99.90
13409;DHT22;6775;49.574;11.170;2023-02-11T04:23:40;-0.90;99.90
13409;DHT22;6775;49.574;11.170;2023-02-11T04:26:09;-1.00;99.90
13409;DHT22;6775;49.574;11.170;2023-02-11T04:28:37;-1.10;99.90
13409;DHT22;6775;49.574;11.170;2023-02-11T04:31:05;-1.20;99.90
13409;DHT22;6775;49.574;11.170;2023-02-11T04:33:33;-1.20;99.90
13409;DHT22;6775;49.574;11.170;2023-02-11T04:36:01;-1.10;99.90
13409;DHT22;6775;49.574;11.170;2023-02-11T04:38:28;-1.00;99.90
13409;DHT22;6775;49.574;11.170;2023-02-11T04:40:56;-1.00;99.90
13409;DHT22;6775;49.574;11.170;2023-02-11T04:43:27;-1.00;99.90
13409;DHT22;6775;49.574;11.170;2023-02-11T04:45:56;-0.90;99.90
13409;DHT22;6775;49.574;11.170;2023-02-11T04:48:24;-0.80;99.90
13409;DHT22;6775;49.574;11.170;2023-02-11T04:50:52;-0.80;99.90
13409;DHT22;6775;49.574;11.170;2023-02-11T04:53:20;-0.80;99.90
13409;DHT22;6775;49.574;11.170;2023-02-11T04:55:48;-0.80;99.90
13409;DHT22;6775;49.574;11.170;2023-02-11T04:58:18;-0.80;99.90
13409;DHT22;6775;49.574;11.170;2023-02-11T05:00:47;-0.80;99.90
13409;DHT22;6775;49.574;11.170;2023-02-11T05:03:15;-0.70;99.90
13409;DHT22;6775;49.574;11.170;2023-02-11T05:05:43;-0.70;99.90
13409;DHT22;6775;49.574;11.170;2023-02-11T05:08:11;-0.70;99.90
13409;DHT22;6775;49.574;11.170;2023-02-11T05:10:39;-0.30;99.90
13409;DHT22;6775;49.574;11.170;2023-02-11T05:13:07;-0.60;99.90
13409;DHT22;6775;49.574;11.170;2023-02-11T05:15:35;-0.60;99.90
13409;DHT22;6775;49.574;11.170;2023-02-11T05:18:04;-0.60;99.90
13409;DHT22;6775;49.574;11.170;2023-02-11T05:20:32;-0.50;99.90
13409;DHT22;6775;49.574;11.170;2023-02-11T05:23:00;-0.60;99.90
13409;DHT22;6775;49.574;11.170;2023-02-11T05:25:27;-0.70;99.90
13409;DHT22;6775;49.574;11.170;2023-02-11T05:27:55;-0.70;99.90
13409;DHT22;6775;49.574;11.170;2023-02-11T05:30:23;-0.70;99.90
13409;DHT22;6775;49.574;11.170;2023-02-11T05:32:51;-0.70;99.90
13409;DHT22;6775;49.574;11.170;2023-02-11T05:35:20;-0.60;99.90
13409;DHT22;6775;49.574;11.170;2023-02-11T05:37:48;-0.50;99.90
13409;DHT22;6775;49.574;11.170;2023-02-11T05:40:16;-0.40;99.90
13409;DHT22;6775;49.574;11.170;2023-02-11T05:42:44;-0.40;99.90
13409;DHT22;6775;49.574;11.170;2023-02-11T05:45:12;-0.30;99.90
13409;DHT22;6775;49.574;11.170;2023-02-11T05:47:40;-0.30;99.90
13409;DHT22;6775;49.574;11.170;2023-02-11T05:50:08;-0.20;99.90
13409;DHT22;6775;49.574;11.170;2023-02-11T05:52:37;-0.10;99.90
13409;DHT22;6775;49.574;11.170;2023-02-11T05:55:05;-0.10;99.90
13409;DHT22;6775;49.574;11.170;2023-02-11T05:57:33;-0.10;99.90
13409;DHT22;6775;49.574;11.170;2023-02-11T06:00:02;0.00;99.90
13409;DHT22;6775;49.574;11.170;2023-02-11T06:02:30;0.00;99.90
13409;DHT22;6775;49.574;11.170;2023-02-11T06:04:58;0.10;99.90
13409;DHT22;6775;49.574;11.170;2023-02-11T06:07:26;0.10;99.90
13409;DHT22;6775;49.574;11.170;2023-02-11T06:09:55;0.20;99.90
13409;DHT22;6775;49.574;11.170;2023-02-11T06:12:23;0.30;99.90
13409;DHT22;6775;49.574;11.170;2023-02-11T06:14:50;0.30;99.90
13409;DHT22;6775;49.574;11.170;2023-02-11T06:17:18;0.30;99.90
13409;DHT22;6775;49.574;11.170;2023-02-11T06:19:46;0.30;99.90
13409;DHT22;6775;49.574;11.170;2023-02-11T06:22:14;0.30;99.90
13409;DHT22;6775;49.574;11.170;2023-02-11T06:24:42;0.20;99.90
13409;DHT22;6775;49.574;11.170;2023-02-11T06:27:27;0.00;99.90
13409;DHT22;6775;49.574;11.170;2023-02-11T06:29:55;-0.20;99.90
13409;DHT22;6775;49.574;11.170;2023-02-11T06:32:23;-0.40;99.90
13409;DHT22;6775;49.574;11.170;2023-02-11T06:35:08;-0.50;99.90
13409;DHT22;6775;49.574;11.170;2023-02-11T06:37:38;-0.60;99.90
13409;DHT22;6775;49.574;11.170;2023-02-11T06:40:06;-0.60;99.90
13409;DHT22;6775;49.574;11.170;2023-02-11T06:42:35;-0.60;99.90
13409;DHT22;6775;49.574;11.170;2023-02-11T06:45:04;-0.60;99.90
13409;DHT22;6775;49.574;11.170;2023-02-11T06:47:34;-0.50;99.90
13409;DHT22;6775;49.574;11.170;2023-02-11T06:50:02;-0.50;99.90
13409;DHT22;6775;49.574;11.170;2023-02-11T06:52:30;-0.50;99.90
13409;DHT22;6775;49.574;11.170;2023-02-11T06:54:58;-0.40;99.90
13409;DHT22;6775;49.574;11.170;2023-02-11T06:57:26;-0.40;99.90
13409;DHT22;6775;49.574;11.170;2023-02-11T06:59:58;-0.30;99.90
13409;DHT22;6775;49.574;11.170;2023-02-11T07:02:26;-0.30;99.90
13409;DHT22;6775;49.574;11.170;2023-02-11T07:04:54;-0.30;99.90
13409;DHT22;6775;49.574;11.170;2023-02-11T07:07:22;-0.40;99.90
13409;DHT22;6775;49.574;11.170;2023-02-11T07:09:49;-0.50;99.90
13409;DHT22;6775;49.574;11.170;2023-02-11T07:12:17;-0.50;99.90
13409;DHT22;6775;49.574;11.170;2023-02-11T07:14:45;-0.50;99.90
13409;DHT22;6775;49.574;11.170;2023-02-11T07:17:14;-0.40;99.90
13409;DHT22;6775;49.574;11.170;2023-02-11T07:19:42;-0.30;99.90
13409;DHT22;6775;49.574;11.170;2023-02-11T07:22:10;-0.20;99.90
13409;DHT22;6775;49.574;11.170;2023-02-11T07:24:38;-0.10;99.90
13409;DHT22;6775;49.574;11.170;2023-02-11T07:27:06;0.20;99.90
13409;DHT22;6775;49.574;11.170;2023-02-11T07:29:33;0.30;99.90
13409;DHT22;6775;49.574;11.170;2023-02-11T07:32:01;0.60;99.90
13409;DHT22;6775;49.574;11.170;2023-02-11T07:34:30;1.20;99.90
13409;DHT22;6775;49.574;11.170;2023-02-11T07:36:58;1.80;99.90
13409;DHT22;6775;49.574;11.170;2023-02-11T07:39:26;2.40;99.90
13409;DHT22;6775;49.574;11.170;2023-02-11T07:41:55;2.40;99.90
13409;DHT22;6775;49.574;11.170;2023-02-11T07:44:23;2.70;99.90
13409;DHT22;6775;49.574;11.170;2023-02-11T07:46:51;2.50;99.90
13409;DHT22;6775;49.574;11.170;2023-02-11T07:49:19;2.30;99.90
13409;DHT22;6775;49.574;11.170;2023-02-11T07:51:48;2.60;99.90
13409;DHT22;6775;49.574;11.170;2023-02-11T07:54:16;3.20;99.90
13409;DHT22;6775;49.574;11.170;2023-02-11T07:56:44;3.40;99.90
13409;DHT22;6775;49.574;11.170;2023-02-11T07:59:12;3.80;99.90
13409;DHT22;6775;49.574;11.170;2023-02-11T08:01:40;4.10;99.90
13409;DHT22;6775;49.574;11.170;2023-02-11T08:04:08;4.10;99.90
13409;DHT22;6775;49.574;11.170;2023-02-11T08:06:39;3.80;99.90
13409;DHT22;6775;49.574;11.170;2023-02-11T08:09:13;3.40;99.90
13409;DHT22;6775;49.574;11.170;2023-02-11T08:11:42;3.00;99.90
13409;DHT22;6775;49.574;11.170;2023-02-11T08:14:10;2.70;99.90
13409;DHT22;6775;49.574;11.170;2023-02-11T08:16:39;2.40;99.90
13409;DHT22;6775;49.574;11.170;2023-02-11T08:19:10;2.10;99.90
13409;DHT22;6775;49.574;11.170;2023-02-11T08:21:39;1.90;99.90
13409;DHT22;6775;49.574;11.170;2023-02-11T08:24:08;1.70;99.90
13409;DHT22;6775;49.574;11.170;2023-02-11T08:26:36;1.60;99.90
13409;DHT22;6775;49.574;11.170;2023-02-11T08:29:08;1.60;99.90
13409;DHT22;6775;49.574;11.170;2023-02-11T08:31:38;1.50;99.90
13409;DHT22;6775;49.574;11.170;2023-02-11T08:34:06;1.40;99.90
13409;DHT22;6775;49.574;11.170;2023-02-11T08:36:37;1.50;99.90
13409;DHT22;6775;49.574;11.170;2023-02-11T08:39:07;1.60;99.90
13409;DHT22;6775;49.574;11.170;2023-02-11T08:41:48;1.80;99.90
13409;DHT22;6775;49.574;11.170;2023-02-11T08:44:17;1.90;99.90
13409;DHT22;6775;49.574;11.170;2023-02-11T08:46:45;2.00;99.90
13409;DHT22;6775;49.574;11.170;2023-02-11T08:49:14;2.10;99.90
13409;DHT22;6775;49.574;11.170;2023-02-11T08:51:42;2.30;99.90
13409;DHT22;6775;49.574;11.170;2023-02-11T08:54:11;2.50;99.90
13409;DHT22;6775;49.574;11.170;2023-02-11T08:56:39;2.60;99.90
13409;DHT22;6775;49.574;11.170;2023-02-11T08:59:12;2.70;99.90
13409;DHT22;6775;49.574;11.170;2023-02-11T09:01:40;2.80;99.90
13409;DHT22;6775;49.574;11.170;2023-02-11T09:04:09;3.00;99.90
13409;DHT22;6775;49.574;11.170;2023-02-11T09:06:37;3.10;99.90
13409;DHT22;6775;49.574;11.170;2023-02-11T09:09:05;3.20;99.90
13409;DHT22;6775;49.574;11.170;2023-02-11T09:11:36;3.30;99.90
13409;DHT22;6775;49.574;11.170;2023-02-11T09:14:05;3.50;99.90
13409;DHT22;6775;49.574;11.170;2023-02-11T09:16:35;3.60;99.90
13409;DHT22;6775;49.574;11.170;2023-02-11T09:19:04;3.80;99.90
13409;DHT22;6775;49.574;11.170;2023-02-11T09:21:32;3.80;99.90
13409;DHT22;6775;49.574;11.170;2023-02-11T09:24:00;3.90;99.90
13409;DHT22;6775;49.574;11.170;2023-02-11T09:26:30;4.00;99.90
13409;DHT22;6775;49.574;11.170;2023-02-11T09:28:59;4.00;99.90
13409;DHT22;6775;49.574;11.170;2023-02-11T09:31:29;4.00;99.90
13409;DHT22;6775;49.574;11.170;2023-02-11T09:34:00;4.00;99.90
13409;DHT22;6775;49.574;11.170;2023-02-11T09:36:31;4.00;99.90
13409;DHT22;6775;49.574;11.170;2023-02-11T09:39:00;4.10;99.90
13409;DHT22;6775;49.574;11.170;2023-02-11T09:41:38;4.20;99.90
13409;DHT22;6775;49.574;11.170;2023-02-11T09:44:17;4.10;99.90
13409;DHT22;6775;49.574;11.170;2023-02-11T09:46:52;4.00;99.90
13409;DHT22;6775;49.574;11.170;2023-02-11T09:49:29;4.00;99.90
13409;DHT22;6775;49.574;11.170;2023-02-11T09:52:02;4.00;99.90
13409;DHT22;6775;49.574;11.170;2023-02-11T09:54:35;4.00;99.90
13409;DHT22;6775;49.574;11.170;2023-02-11T09:57:04;3.90;99.90
13409;DHT22;6775;49.574;11.170;2023-02-11T09:59:39;3.90;99.90
13409;DHT22;6775;49.574;11.170;2023-02-11T10:02:14;3.90;99.90
13409;DHT22;6775;49.574;11.170;2023-02-11T10:05:11;3.90;99.90
13409;DHT22;6775;49.574;11.170;2023-02-11T10:07:47;4.00;99.90
13409;DHT22;6775;49.574;11.170;2023-02-11T10:10:34;4.20;99.90
13409;DHT22;6775;49.574;11.170;2023-02-11T10:16:04;4.50;99.90
13409;DHT22;6775;49.574;11.170;2023-02-11T10:18:44;4.50;99.90
13409;DHT22;6775;49.574;11.170;2023-02-11T10:21:22;4.50;99.90
13409;DHT22;6775;49.574;11.170;2023-02-11T10:23:54;4.60;99.90
13409;DHT22;6775;49.574;11.170;2023-02-11T10:26:26;4.70;99.90
13409;DHT22;6775;49.574;11.170;2023-02-11T10:29:00;4.80;99.90
13409;DHT22;6775;49.574;11.170;2023-02-11T10:31:35;4.80;99.90
13409;DHT22;6775;49.574;11.170;2023-02-11T10:34:06;4.90;99.90
13409;DHT22;6775;49.574;11.170;2023-02-11T10:36:38;5.00;99.90
13409;DHT22;6775;49.574;11.170;2023-02-11T10:39:11;5.00;99.90
13409;DHT22;6775;49.574;11.170;2023-02-11T10:41:42;5.10;99.90
13409;DHT22;6775;49.574;11.170;2023-02-11T10:44:20;5.20;99.90
13409;DHT22;6775;49.574;11.170;2023-02-11T10:46:50;5.40;99.90
13409;DHT22;6775;49.574;11.170;2023-02-11T10:49:33;5.50;99.90
13409;DHT22;6775;49.574;11.170;2023-02-11T10:52:21;5.60;99.90
13409;DHT22;6775;49.574;11.170;2023-02-11T10:55:00;5.60;99.90
13409;DHT22;6775;49.574;11.170;2023-02-11T10:57:33;5.60;99.90
13409;DHT22;6775;49.574;11.170;2023-02-11T11:00:07;5.60;99.90
13409;DHT22;6775;49.574;11.170;2023-02-11T11:02:52;5.60;99.90
13409;DHT22;6775;49.574;11.170;2023-02-11T11:05:27;5.60;99.90
13409;DHT22;6775;49.574;11.170;2023-02-11T11:07:59;5.60;99.90
13409;DHT22;6775;49.574;11.170;2023-02-11T11:10:37;5.60;99.90
13409;DHT22;6775;49.574;11.170;2023-02-11T11:13:27;5.60;99.90
13409;DHT22;6775;49.574;11.170;2023-02-11T11:16:14;5.60;99.90
13409;DHT22;6775;49.574;11.170;2023-02-11T11:18:43;5.60;99.90
13409;DHT22;6775;49.574;11.170;2023-02-11T11:21:14;5.60;99.90
13409;DHT22;6775;49.574;11.170;2023-02-11T11:23:53;5.70;99.90
13409;DHT22;6775;49.574;11.170;2023-02-11T11:26:22;5.70;99.90
13409;DHT22;6775;49.574;11.170;2023-02-11T11:28:55;5.80;99.90
13409;DHT22;6775;49.574;11.170;2023-02-11T11:31:27;5.90;99.90
13409;DHT22;6775;49.574;11.170;2023-02-11T11:33:58;6.00;99.90
13409;DHT22;6775;49.574;11.170;2023-02-11T11:36:33;6.00;99.90
13409;DHT22;6775;49.574;11.170;2023-02-11T11:39:17;6.00;99.90
13409;DHT22;6775;49.574;11.170;2023-02-11T11:41:54;6.00;99.90
13409;DHT22;6775;49.574;11.170;2023-02-11T11:44:28;5.90;99.90
13409;DHT22;6775;49.574;11.170;2023-02-11T11:47:18;5.90;99.90
13409;DHT22;6775;49.574;11.170;2023-02-11T11:49:53;5.90;99.90
13409;DHT22;6775;49.574;11.170;2023-02-11T11:52:34;5.90;99.90
13409;DHT22;6775;49.574;11.170;2023-02-11T11:55:12;5.80;99.90
13409;DHT22;6775;49.574;11.170;2023-02-11T11:57:41;5.80;99.90
13409;DHT22;6775;49.574;11.170;2023-02-11T12:00:16;5.80;99.90
13409;DHT22;6775;49.574;11.170;2023-02-11T12:03:15;5.80;99.90
13409;DHT22;6775;49.574;11.170;2023-02-11T12:05:54;5.80;99.90
13409;DHT22;6775;49.574;11.170;2023-02-11T12:08:34;5.80;99.90
13409;DHT22;6775;49.574;11.170;2023-02-11T12:11:13;5.80;99.90
13409;DHT22;6775;49.574;11.170;2023-02-11T12:13:52;5.90;99.90
13409;DHT22;6775;49.574;11.170;2023-02-11T12:16:31;5.90;99.90
13409;DHT22;6775;49.574;11.170;2023-02-11T12:19:24;6.00;99.90
13409;DHT22;6775;49.574;11.170;2023-02-11T12:22:04;6.00;99.90
13409;DHT22;6775;49.574;11.170;2023-02-11T12:24:49;6.00;99.90
13409;DHT22;6775;49.574;11.170;2023-02-11T12:27:32;5.90;99.90
13409;DHT22;6775;49.574;11.170;2023-02-11T12:30:12;5.90;99.90
13409;DHT22;6775;49.574;11.170;2023-02-11T12:32:47;5.80;99.90
13409;DHT22;6775;49.574;11.170;2023-02-11T12:35:26;5.90;99.90
13409;DHT22;6775;49.574;11.170;2023-02-11T12:38:27;5.80;99.90
13409;DHT22;6775;49.574;11.170;2023-02-11T12:41:11;5.70;99.90
13409;DHT22;6775;49.574;11.170;2023-02-11T12:43:43;5.80;99.90
13409;DHT22;6775;49.574;11.170;2023-02-11T12:46:41;5.70;99.90
13409;DHT22;6775;49.574;11.170;2023-02-11T12:49:23;5.80;99.90
13409;DHT22;6775;49.574;11.170;2023-02-11T12:52:11;5.80;99.90
13409;DHT22;6775;49.574;11.170;2023-02-11T12:54:47;5.80;99.90
13409;DHT22;6775;49.574;11.170;2023-02-11T12:57:20;5.80;99.90
13409;DHT22;6775;49.574;11.170;2023-02-11T12:59:55;5.80;99.90
13409;DHT22;6775;49.574;11.170;2023-02-11T13:02:33;5.80;99.90
13409;DHT22;6775;49.574;11.170;2023-02-11T13:05:10;5.80;99.90
13409;DHT22;6775;49.574;11.170;2023-02-11T13:07:44;5.70;99.90
13409;DHT22;6775;49.574;11.170;2023-02-11T13:10:25;5.80;99.90
13409;DHT22;6775;49.574;11.170;2023-02-11T13:12:54;5.70;99.90
13409;DHT22;6775;49.574;11.170;2023-02-11T13:15:49;5.70;99.90
13409;DHT22;6775;49.574;11.170;2023-02-11T13:18:27;5.70;99.90
13409;DHT22;6775;49.574;11.170;2023-02-11T13:21:14;5.70;99.90
13409;DHT22;6775;49.574;11.170;2023-02-11T13:23:52;5.70;99.90
13409;DHT22;6775;49.574;11.170;2023-02-11T13:26:28;5.70;99.90
13409;DHT22;6775;49.574;11.170;2023-02-11T13:29:09;5.70;99.90
13409;DHT22;6775;49.574;11.170;2023-02-11T13:31:39;5.60;99.90
13409;DHT22;6775;49.574;11.170;2023-02-11T13:34:22;5.50;99.90
13409;DHT22;6775;49.574;11.170;2023-02-11T13:36:54;5.50;99.90
13409;DHT22;6775;49.574;11.170;2023-02-11T13:39:22;5.50;99.90
13409;DHT22;6775;49.574;11.170;2023-02-11T13:42:01;5.50;99.90
13409;DHT22;6775;49.574;11.170;2023-02-11T13:44:33;5.50;99.90
13409;DHT22;6775;49.574;11.170;2023-02-11T13:47:03;5.60;99.90
13409;DHT22;6775;49.574;11.170;2023-02-11T13:49:34;5.60;99.90
13409;DHT22;6775;49.574;11.170;2023-02-11T13:52:17;5.70;99.90
13409;DHT22;6775;49.574;11.170;2023-02-11T13:54:49;5.70;99.90
13409;DHT22;6775;49.574;11.170;2023-02-11T13:57:34;5.70;99.90
13409;DHT22;6775;49.574;11.170;2023-02-11T14:03:31;5.70;99.90
13409;DHT22;6775;49.574;11.170;2023-02-11T14:06:22;5.70;99.90
13409;DHT22;6775;49.574;11.170;2023-02-11T14:09:37;5.70;99.90
13409;DHT22;6775;49.574;11.170;2023-02-11T14:12:29;5.70;99.90
13409;DHT22;6775;49.574;11.170;2023-02-11T14:18:37;5.60;99.90
13409;DHT22;6775;49.574;11.170;2023-02-11T14:21:11;5.60;99.90
13409;DHT22;6775;49.574;11.170;2023-02-11T14:23:40;5.70;99.90
13409;DHT22;6775;49.574;11.170;2023-02-11T14:26:28;5.70;99.90
13409;DHT22;6775;49.574;11.170;2023-02-11T14:29:05;5.60;99.90
13409;DHT22;6775;49.574;11.170;2023-02-11T14:31:39;5.60;99.90
13409;DHT22;6775;49.574;11.170;2023-02-11T14:34:34;5.60;99.90
13409;DHT22;6775;49.574;11.170;2023-02-11T14:37:14;5.60;99.90
13409;DHT22;6775;49.574;11.170;2023-02-11T14:39:55;5.50;99.90
13409;DHT22;6775;49.574;11.170;2023-02-11T14:42:26;5.50;99.90
13409;DHT22;6775;49.574;11.170;2023-02-11T14:44:56;5.50;99.90
13409;DHT22;6775;49.574;11.170;2023-02-11T14:47:29;5.50;99.90
13409;DHT22;6775;49.574;11.170;2023-02-11T14:50:02;5.50;99.90
13409;DHT22;6775;49.574;11.170;2023-02-11T14:52:36;5.50;99.90
13409;DHT22;6775;49.574;11.170;2023-02-11T14:55:14;5.40;99.90
13409;DHT22;6775;49.574;11.170;2023-02-11T14:57:43;5.40;99.90
13409;DHT22;6775;49.574;11.170;2023-02-11T15:00:17;5.40;99.90
13409;DHT22;6775;49.574;11.170;2023-02-11T15:02:46;5.40;99.90
13409;DHT22;6775;49.574;11.170;2023-02-11T15:05:21;5.30;99.90
13409;DHT22;6775;49.574;11.170;2023-02-11T15:07:53;5.30;99.90
13409;DHT22;6775;49.574;11.170;2023-02-11T15:10:27;5.40;99.90
13409;DHT22;6775;49.574;11.170;2023-02-11T15:12:57;5.30;99.90
13409;DHT22;6775;49.574;11.170;2023-02-11T15:15:26;5.30;99.90
13409;DHT22;6775;49.574;11.170;2023-02-11T15:17:57;5.30;99.90
13409;DHT22;6775;49.574;11.170;2023-02-11T15:20:29;5.30;99.90
13409;DHT22;6775;49.574;11.170;2023-02-11T15:23:00;5.20;99.90
13409;DHT22;6775;49.574;11.170;2023-02-11T15:25:29;5.20;99.90
13409;DHT22;6775;49.574;11.170;2023-02-11T15:27:59;5.20;99.90
13409;DHT22;6775;49.574;11.170;2023-02-11T15:30:30;5.20;99.90
13409;DHT22;6775;49.574;11.170;2023-02-11T15:33:00;5.20;99.90
13409;DHT22;6775;49.574;11.170;2023-02-11T15:35:31;5.20;99.90
13409;DHT22;6775;49.574;11.170;2023-02-11T15:38:00;5.20;99.90
13409;DHT22;6775;49.574;11.170;2023-02-11T15:40:30;5.10;99.90
13409;DHT22;6775;49.574;11.170;2023-02-11T15:43:00;5.10;99.90
13409;DHT22;6775;49.574;11.170;2023-02-11T15:45:30;5.10;99.90
13409;DHT22;6775;49.574;11.170;2023-02-11T15:48:05;5.10;99.90
13409;DHT22;6775;49.574;11.170;2023-02-11T15:50:37;5.10;99.90
13409;DHT22;6775;49.574;11.170;2023-02-11T15:53:20;5.10;99.90
13409;DHT22;6775;49.574;11.170;2023-02-11T15:55:50;5.10;99.90
13409;DHT22;6775;49.574;11.170;2023-02-11T15:58:18;5.10;99.90
13409;DHT22;6775;49.574;11.170;2023-02-11T16:00:48;5.10;99.90
13409;DHT22;6775;49.574;11.170;2023-02-11T16:03:20;5.10;99.90
13409;DHT22;6775;49.574;11.170;2023-02-11T16:05:50;5.00;99.90
13409;DHT22;6775;49.574;11.170;2023-02-11T16:08:23;5.00;99.90
13409;DHT22;6775;49.574;11.170;2023-02-11T16:10:56;5.00;99.90
13409;DHT22;6775;49.574;11.170;2023-02-11T16:13:25;5.00;99.90
13409;DHT22;6775;49.574;11.170;2023-02-11T16:15:56;5.00;99.90
13409;DHT22;6775;49.574;11.170;2023-02-11T16:18:33;5.00;99.90
13409;DHT22;6775;49.574;11.170;2023-02-11T16:21:12;5.00;99.90
13409;DHT22;6775;49.574;11.170;2023-02-11T16:23:47;5.00;99.90
13409;DHT22;6775;49.574;11.170;2023-02-11T16:26:21;5.00;99.90
13409;DHT22;6775;49.574;11.170;2023-02-11T16:28:51;4.90;99.90
13409;DHT22;6775;49.574;11.170;2023-02-11T16:31:19;4.90;99.90
13409;DHT22;6775;49.574;11.170;2023-02-11T16:33:47;4.90;99.90